KDAA/DAA METAR and TAF weather

Enter ICAO airport designator
Station Type Date Time Source
KDAA METAR 2018/07/19 06:56 UTC NOAA

KDAA 190656Z AUTO 00000KT 10SM CLR 18/16 A3003 RMK AO2 SLP172 T01760164


Station Type Date Time Source
KDAA Decoded METAR 2018/07/19 06:56 UTC NOAA

Fort Belvoir, VA, United States (KDAA) 38-43N 077-11W
Jul 19, 2018 - 02:56 AM EDT / 2018.07.19 0656 UTC
Wind: Calm:0
Visibility: 10 mile(s):0
Sky conditions: clear
Temperature: 63.7 F (17.6 C)
Dew Point: 61.5 F (16.4 C)
Relative Humidity: 92%
Pressure (altimeter): 30.03 in. Hg (1016 hPa)
ob: KDAA 190656Z AUTO 00000KT 10SM CLR 18/16 A3003 RMK AO2 SLP172 T01760164
cycle: 7

Station Type Date Time Source
KDAA TAF 2018/07/19 01:03 UTC NOAA

TAF KDAA 190100Z 1901/2007 01009KT 9999 SCT050 QNH2993INS WND 12009KT AFT 1921 TX30/1918Z TN20/1911Z LAST NO
AMDS AFT 1901 NEXT 1909


Example: see airport list